Time;durP1;ratioP1;P1;durP2;ratioP2;P2;SDS_P1;SDS_P2;PMS_P1;PMS_P2;Temp;Humidity;BMP_temperature;BMP_pressure;BME280_temperature;BME280_humidity;BME280_pressure;Samples;Min_cycle;Max_cycle;Signal;HPM_P1;HPM_P2
2021/12/15 00:00:29;;;;;;;0.93;0.90;;;;;;;;;;5030452;28;20235;-69
2021/12/15 00:03:16;;;;;;;1.20;1.10;;;;;;;;;;5029317;28;20276;-69
2021/12/15 00:06:10;;;;;;;0.80;0.80;;;;;;;;;;5020011;28;20223;-69
2021/12/15 00:08:59;;;;;;;0.77;0.77;;;;;;;;;;5029210;28;20225;-69
2021/12/15 00:11:46;;;;;;;0.90;0.90;;;;;;;;;;5028936;28;20280;-69
2021/12/15 00:14:35;;;;;;;1.03;0.97;;;;;;;;;;5029206;28;20567;-69
2021/12/15 00:17:23;;;;;;;1.17;1.07;;;;;;;;;;5016073;28;20208;-69
2021/12/15 00:20:15;;;;;;;1.00;1.00;;;;;;;;;;5039562;28;20561;-69
2021/12/15 00:23:04;;;;;;;0.90;0.90;;;;;;;;;;5028869;28;20271;-69
2021/12/15 00:25:51;;;;;;;0.83;0.83;;;;;;;;;;5048950;28;20332;-69
2021/12/15 00:28:39;;;;;;;0.57;0.57;;;;;;;;;;5048689;28;20691;-69
2021/12/15 00:31:28;;;;;;;1.20;0.90;;;;;;;;;;5047278;28;20208;-69
2021/12/15 00:34:16;;;;;;;0.97;0.93;;;;;;;;;;5030589;28;20321;-69
2021/12/15 00:37:03;;;;;;;0.70;0.70;;;;;;;;;;5042565;28;20295;-69
2021/12/15 00:39:50;;;;;;;0.50;0.50;;;;;;;;;;5048668;28;20224;-69
2021/12/15 00:42:37;;;;;;;1.20;0.63;;;;;;;;;;5040485;28;20223;-68
2021/12/15 00:45:25;;;;;;;0.63;0.63;;;;;;;;;;5055296;28;20339;-69
2021/12/15 00:48:14;;;;;;;1.03;1.00;;;;;;;;;;5054244;28;20239;-69
2021/12/15 00:51:01;;;;;;;1.37;1.20;;;;;;;;;;5065615;28;20211;-69
2021/12/15 00:53:48;;;;;;;0.70;0.70;;;;;;;;;;5046077;28;20278;-69
2021/12/15 00:56:36;;;;;;;0.90;0.90;;;;;;;;;;5046719;28;20302;-69
2021/12/15 00:59:23;;;;;;;0.60;0.60;;;;;;;;;;5049481;28;20288;-69
2021/12/15 01:02:10;;;;;;;1.13;1.03;;;;;;;;;;5048074;28;20343;-69
2021/12/15 01:04:58;;;;;;;0.97;0.80;;;;;;;;;;5048431;28;20229;-69
2021/12/15 01:07:47;;;;;;;0.90;0.90;;;;;;;;;;5034888;28;20723;-70
2021/12/15 01:10:52;;;;;;;0.70;0.70;;;;;;;;;;5046754;28;20233;-69
2021/12/15 01:20:12;;;;;;;0.60;0.60;;;;;;;;;;5039933;28;20201;-69
2021/12/15 01:23:04;;;;;;;0.80;0.80;;;;;;;;;;5045330;28;20254;-69
2021/12/15 01:25:54;;;;;;;0.90;0.90;;;;;;;;;;5034084;28;20698;-69
2021/12/15 01:28:41;;;;;;;1.17;1.00;;;;;;;;;;5047986;28;20216;-69
2021/12/15 01:31:28;;;;;;;0.60;0.60;;;;;;;;;;5047286;28;20714;-68
2021/12/15 01:34:15;;;;;;;0.80;0.80;;;;;;;;;;5044974;28;20699;-69
2021/12/15 01:37:04;;;;;;;1.00;0.87;;;;;;;;;;5051273;28;20216;-69
2021/12/15 01:39:54;;;;;;;0.83;0.83;;;;;;;;;;5051837;28;21272;-69
2021/12/15 01:42:41;;;;;;;0.87;0.87;;;;;;;;;;5041727;28;20684;-69
2021/12/15 01:48:34;;;;;;;0.60;0.60;;;;;;;;;;5051800;28;20212;-69
2021/12/15 01:51:21;;;;;;;0.70;0.70;;;;;;;;;;5051194;28;20291;-69
2021/12/15 01:54:10;;;;;;;1.90;0.87;;;;;;;;;;5046770;28;20257;-69
2021/12/15 01:56:58;;;;;;;1.43;0.73;;;;;;;;;;5044436;28;20259;-69
2021/12/15 01:59:48;;;;;;;1.30;1.03;;;;;;;;;;5036012;28;20791;-69
2021/12/15 02:02:35;;;;;;;2.07;1.07;;;;;;;;;;5049701;28;20233;-65
2021/12/15 02:05:22;;;;;;;1.13;0.70;;;;;;;;;;5052774;28;20718;-65
2021/12/15 02:08:12;;;;;;;0.97;0.87;;;;;;;;;;5052065;28;20328;-65
2021/12/15 02:11:00;;;;;;;0.97;0.80;;;;;;;;;;5049740;28;20221;-65
2021/12/15 02:13:47;;;;;;;1.40;1.00;;;;;;;;;;5052821;28;20218;-65
2021/12/15 02:16:34;;;;;;;1.33;0.83;;;;;;;;;;5038005;28;20256;-65
2021/12/15 02:19:21;;;;;;;1.20;1.03;;;;;;;;;;5050807;28;20219;-65
2021/12/15 02:22:10;;;;;;;1.07;0.97;;;;;;;;;;5038734;28;20255;-65
2021/12/15 02:24:57;;;;;;;0.83;0.83;;;;;;;;;;5025137;28;20292;-65
2021/12/15 02:27:44;;;;;;;0.77;0.77;;;;;;;;;;5028204;28;20234;-65
2021/12/15 02:30:47;;;;;;;0.90;0.60;;;;;;;;;;5030176;28;20636;-65
2021/12/15 02:39:45;;;;;;;0.70;0.70;;;;;;;;;;5021545;28;20702;-65
2021/12/15 02:42:37;;;;;;;1.03;1.03;;;;;;;;;;5031200;28;20200;-65
2021/12/15 02:45:25;;;;;;;1.23;0.93;;;;;;;;;;5027325;28;20211;-65
2021/12/15 02:48:12;;;;;;;1.00;0.90;;;;;;;;;;5017715;28;20208;-66
2021/12/15 02:50:59;;;;;;;1.33;0.90;;;;;;;;;;5044092;28;20229;-65
2021/12/15 02:53:47;;;;;;;1.57;0.80;;;;;;;;;;5031114;28;20241;-65
2021/12/15 02:56:36;;;;;;;0.70;0.70;;;;;;;;;;5030953;28;20694;-64
2021/12/15 02:59:30;;;;;;;0.93;0.80;;;;;;;;;;5041407;28;20211;-65
2021/12/15 03:02:41;;;;;;;0.87;0.70;;;;;;;;;;5031608;28;20215;-65
2021/12/15 03:05:32;;;;;;;1.10;1.00;;;;;;;;;;5018973;28;20264;-65
2021/12/15 03:08:23;;;;;;;1.17;0.87;;;;;;;;;;5017223;28;20246;-65
2021/12/15 03:17:20;;;;;;;1.57;1.03;;;;;;;;;;5026795;28;20210;-65
2021/12/15 03:20:10;;;;;;;1.30;1.00;;;;;;;;;;5027598;28;20290;-65
2021/12/15 03:22:59;;;;;;;1.20;0.73;;;;;;;;;;5029280;28;20296;-65
2021/12/15 03:25:45;;;;;;;1.00;0.90;;;;;;;;;;5031535;28;20328;-66
2021/12/15 03:35:02;;;;;;;2.03;1.00;;;;;;;;;;5013299;28;20276;-65
2021/12/15 03:37:51;;;;;;;0.73;0.73;;;;;;;;;;5029722;28;20197;-64
2021/12/15 03:40:41;;;;;;;1.10;1.00;;;;;;;;;;5027333;28;20677;-65
2021/12/15 03:43:28;;;;;;;1.10;1.00;;;;;;;;;;5025769;28;20627;-65
2021/12/15 03:46:17;;;;;;;1.17;0.90;;;;;;;;;;5020863;28;20205;-66
2021/12/15 03:49:06;;;;;;;1.20;0.80;;;;;;;;;;5028693;28;20596;-66
2021/12/15 03:51:53;;;;;;;1.13;1.00;;;;;;;;;;5029394;28;20628;-65
2021/12/15 03:54:40;;;;;;;1.93;0.70;;;;;;;;;;5020372;28;20692;-65
2021/12/15 03:57:28;;;;;;;1.37;1.00;;;;;;;;;;5019038;28;20230;-65
2021/12/15 04:00:17;;;;;;;1.67;1.03;;;;;;;;;;5029936;28;20234;-65
2021/12/15 04:03:04;;;;;;;1.30;1.13;;;;;;;;;;5028902;28;20197;-65
2021/12/15 04:05:53;;;;;;;1.40;0.80;;;;;;;;;;5019352;28;20288;-66
2021/12/15 04:08:40;;;;;;;0.70;0.70;;;;;;;;;;5014586;28;20242;-65
2021/12/15 04:11:33;;;;;;;1.20;1.00;;;;;;;;;;5027428;28;20264;-65
2021/12/15 04:14:28;;;;;;;1.40;1.13;;;;;;;;;;5018945;28;20330;-66
2021/12/15 04:17:31;;;;;;;0.70;0.70;;;;;;;;;;5014100;28;20207;-65
2021/12/15 04:20:21;;;;;;;1.63;0.90;;;;;;;;;;5029959;28;20206;-65
2021/12/15 04:23:12;;;;;;;1.00;0.90;;;;;;;;;;5026928;28;20332;-65
2021/12/15 04:25:59;;;;;;;0.80;0.80;;;;;;;;;;5042069;28;20225;-66
2021/12/15 04:28:47;;;;;;;1.27;0.90;;;;;;;;;;5023722;28;20229;-65
2021/12/15 04:31:38;;;;;;;1.00;0.90;;;;;;;;;;5018277;28;20218;-65
2021/12/15 04:34:25;;;;;;;0.80;0.80;;;;;;;;;;5013397;28;20314;-64
2021/12/15 04:37:12;;;;;;;0.80;0.80;;;;;;;;;;5025719;28;20300;-65
2021/12/15 04:40:02;;;;;;;1.17;1.00;;;;;;;;;;5026624;28;20293;-64
2021/12/15 04:42:49;;;;;;;0.80;0.80;;;;;;;;;;5027468;28;20241;-65
2021/12/15 04:45:36;;;;;;;1.43;0.97;;;;;;;;;;5027424;28;20245;-65
2021/12/15 04:48:23;;;;;;;1.17;0.80;;;;;;;;;;5039760;28;20213;-65
2021/12/15 04:51:10;;;;;;;0.80;0.80;;;;;;;;;;5014237;28;20236;-65
2021/12/15 04:53:58;;;;;;;0.73;0.73;;;;;;;;;;5023963;28;20236;-65
2021/12/15 04:56:47;;;;;;;1.37;0.80;;;;;;;;;;5027665;28;20301;-66
2021/12/15 04:59:35;;;;;;;0.67;0.60;;;;;;;;;;5025019;28;20261;-64
2021/12/15 05:02:23;;;;;;;0.63;0.60;;;;;;;;;;5021284;28;20288;-65
2021/12/15 05:05:10;;;;;;;0.70;0.70;;;;;;;;;;5028066;28;20264;-65
2021/12/15 05:07:57;;;;;;;0.97;0.80;;;;;;;;;;5035108;28;20550;-64
2021/12/15 05:10:44;;;;;;;1.07;0.93;;;;;;;;;;5031610;28;20449;-65
2021/12/15 05:13:34;;;;;;;0.93;0.83;;;;;;;;;;5028219;28;20722;-65
2021/12/15 05:16:21;;;;;;;1.30;0.83;;;;;;;;;;5026689;28;20217;-65
2021/12/15 05:19:08;;;;;;;1.17;1.07;;;;;;;;;;5027087;28;20664;-65
2021/12/15 05:21:56;;;;;;;0.70;0.70;;;;;;;;;;5027176;28;20260;-65
2021/12/15 05:24:44;;;;;;;1.27;0.77;;;;;;;;;;4995319;28;1104861;-65
2021/12/15 05:27:31;;;;;;;0.70;0.70;;;;;;;;;;5042267;28;20354;-65
2021/12/15 05:30:20;;;;;;;1.13;1.07;;;;;;;;;;5048809;28;20232;-65
2021/12/15 05:33:07;;;;;;;1.27;1.10;;;;;;;;;;5040926;28;20299;-65
2021/12/15 05:35:56;;;;;;;1.03;0.90;;;;;;;;;;5046009;28;20204;-65
2021/12/15 05:38:43;;;;;;;1.87;1.30;;;;;;;;;;5049463;28;20691;-65
2021/12/15 05:41:30;;;;;;;1.10;0.90;;;;;;;;;;5047002;28;20206;-65
2021/12/15 05:44:17;;;;;;;0.53;0.47;;;;;;;;;;5049349;28;20286;-65
2021/12/15 05:47:07;;;;;;;1.10;0.70;;;;;;;;;;5048201;28;20250;-65
2021/12/15 05:49:55;;;;;;;0.70;0.70;;;;;;;;;;5047572;28;20211;-65
2021/12/15 05:52:42;;;;;;;1.03;0.93;;;;;;;;;;5033935;28;20202;-65
2021/12/15 05:55:29;;;;;;;1.10;1.00;;;;;;;;;;5045588;28;20249;-65
2021/12/15 05:58:16;;;;;;;2.20;1.20;;;;;;;;;;5046491;28;20295;-65
2021/12/15 06:01:05;;;;;;;0.97;0.90;;;;;;;;;;5049080;28;20290;-66
2021/12/15 06:03:53;;;;;;;1.00;1.00;;;;;;;;;;5047827;28;20320;-65
2021/12/15 06:06:41;;;;;;;0.87;0.87;;;;;;;;;;5046014;28;20295;-65
2021/12/15 06:09:28;;;;;;;1.40;1.00;;;;;;;;;;5040725;28;20206;-66
2021/12/15 06:12:15;;;;;;;0.90;0.90;;;;;;;;;;5047897;28;20262;-65
2021/12/15 06:15:03;;;;;;;1.93;1.07;;;;;;;;;;5046186;28;20255;-65
2021/12/15 06:17:51;;;;;;;1.70;1.03;;;;;;;;;;5047844;28;20202;-65
2021/12/15 06:20:40;;;;;;;1.03;0.80;;;;;;;;;;5049715;28;20292;-64
2021/12/15 06:23:28;;;;;;;1.57;0.90;;;;;;;;;;5051389;28;20733;-65
2021/12/15 06:26:16;;;;;;;1.30;1.00;;;;;;;;;;5048847;28;20205;-65
2021/12/15 06:29:03;;;;;;;1.20;1.00;;;;;;;;;;5047013;28;20208;-65
2021/12/15 06:31:50;;;;;;;1.40;1.17;;;;;;;;;;5049871;28;20300;-65
2021/12/15 06:34:38;;;;;;;1.90;1.03;;;;;;;;;;5049092;28;20213;-65
2021/12/15 06:37:26;;;;;;;1.30;1.03;;;;;;;;;;5048304;28;20299;-64
2021/12/15 06:40:14;;;;;;;0.90;0.90;;;;;;;;;;5049040;28;20689;-65
2021/12/15 06:43:01;;;;;;;1.40;1.10;;;;;;;;;;5041760;28;20285;-65
2021/12/15 06:46:06;;;;;;;1.33;1.10;;;;;;;;;;5045580;28;20256;-65
2021/12/15 06:58:13;;;;;;;0.93;0.93;;;;;;;;;;5050268;28;20237;-65
2021/12/15 07:01:04;;;;;;;1.30;0.93;;;;;;;;;;5042717;28;20200;-65
2021/12/15 07:03:51;;;;;;;1.73;1.60;;;;;;;;;;5042700;28;20275;-64
2021/12/15 07:06:38;;;;;;;1.43;1.27;;;;;;;;;;5041440;28;20288;-61
2021/12/15 07:09:25;;;;;;;1.10;1.00;;;;;;;;;;5048829;28;20630;-65
2021/12/15 07:12:14;;;;;;;1.10;1.00;;;;;;;;;;5050962;28;20297;-65
2021/12/15 07:15:00;;;;;;;2.33;1.43;;;;;;;;;;5039863;28;20252;-64
2021/12/15 07:17:50;;;;;;;2.70;1.50;;;;;;;;;;5037580;28;20670;-65
2021/12/15 07:20:42;;;;;;;1.77;1.40;;;;;;;;;;5046146;28;20205;-65
2021/12/15 07:23:28;;;;;;;1.30;1.10;;;;;;;;;;5041001;28;20216;-65
2021/12/15 07:26:16;;;;;;;1.30;1.20;;;;;;;;;;5040821;28;20669;-65
2021/12/15 07:29:04;;;;;;;3.33;1.40;;;;;;;;;;5044928;28;20299;-64
2021/12/15 07:31:51;;;;;;;1.60;1.40;;;;;;;;;;5036256;28;20698;-65
2021/12/15 07:34:38;;;;;;;1.70;1.40;;;;;;;;;;5034489;28;20209;-65
2021/12/15 07:37:25;;;;;;;2.73;1.30;;;;;;;;;;5046332;28;20232;-65
2021/12/15 07:40:19;;;;;;;1.73;1.40;;;;;;;;;;5034693;28;20611;-65
2021/12/15 07:43:10;;;;;;;1.63;1.20;;;;;;;;;;5038260;28;20232;-65
2021/12/15 07:46:02;;;;;;;1.40;1.30;;;;;;;;;;5044530;28;20213;-65
2021/12/15 07:48:49;;;;;;;1.77;1.20;;;;;;;;;;5036171;28;20236;-65
2021/12/15 07:51:36;;;;;;;1.30;1.20;;;;;;;;;;5055088;28;20360;-64
2021/12/15 07:54:23;;;;;;;1.30;1.20;;;;;;;;;;5048222;28;20236;-64
2021/12/15 07:57:16;;;;;;;1.17;1.10;;;;;;;;;;5050502;28;20210;-65
2021/12/15 08:00:04;;;;;;;2.47;1.33;;;;;;;;;;5048530;28;20212;-65
2021/12/15 08:02:53;;;;;;;1.90;1.30;;;;;;;;;;5049722;28;20304;-65
2021/12/15 08:05:42;;;;;;;1.17;1.07;;;;;;;;;;5040464;28;20312;-65
2021/12/15 08:08:29;;;;;;;1.60;1.20;;;;;;;;;;5044905;28;20239;-64
2021/12/15 08:11:16;;;;;;;1.57;1.40;;;;;;;;;;5043001;28;20325;-65
2021/12/15 08:14:03;;;;;;;2.07;1.30;;;;;;;;;;5048953;28;20771;-64
2021/12/15 08:16:50;;;;;;;1.60;1.30;;;;;;;;;;5043542;28;20214;-64
2021/12/15 08:19:39;;;;;;;1.40;1.30;;;;;;;;;;5041723;28;20240;-64
2021/12/15 08:22:26;;;;;;;2.90;1.60;;;;;;;;;;5051828;28;20570;-65
2021/12/15 08:25:14;;;;;;;1.53;1.43;;;;;;;;;;5051509;28;20318;-65
2021/12/15 08:28:02;;;;;;;2.07;1.70;;;;;;;;;;5041760;28;20217;-65
2021/12/15 08:30:51;;;;;;;2.07;1.67;;;;;;;;;;5033275;28;20681;-65
2021/12/15 08:33:38;;;;;;;1.37;1.37;;;;;;;;;;5043534;28;20342;-64
2021/12/15 08:36:27;;;;;;;2.27;1.47;;;;;;;;;;5036071;28;20299;-65
2021/12/15 08:39:14;;;;;;;1.47;1.37;;;;;;;;;;5037838;28;20203;-65
2021/12/15 08:42:01;;;;;;;1.43;1.20;;;;;;;;;;5045114;28;20235;-65
2021/12/15 08:44:48;;;;;;;1.63;1.27;;;;;;;;;;5034141;28;20773;-65
2021/12/15 08:47:35;;;;;;;1.60;1.50;;;;;;;;;;5059518;28;20210;-65
2021/12/15 08:50:27;;;;;;;1.67;1.57;;;;;;;;;;5049139;28;20211;-66
2021/12/15 08:53:17;;;;;;;1.50;1.40;;;;;;;;;;5050711;28;20680;-64
2021/12/15 08:56:05;;;;;;;1.33;1.23;;;;;;;;;;5045907;28;20210;-65
2021/12/15 08:58:53;;;;;;;1.57;1.20;;;;;;;;;;5044816;28;20350;-65
2021/12/15 09:01:41;;;;;;;1.37;1.27;;;;;;;;;;5048441;28;20223;-65
2021/12/15 09:04:28;;;;;;;1.37;1.30;;;;;;;;;;5042266;28;20335;-65
2021/12/15 09:07:15;;;;;;;1.40;1.00;;;;;;;;;;5041388;28;20303;-65
2021/12/15 09:10:03;;;;;;;1.40;1.30;;;;;;;;;;5048169;28;20209;-65
2021/12/15 09:12:50;;;;;;;1.33;1.23;;;;;;;;;;5049053;28;20348;-65
2021/12/15 09:15:38;;;;;;;1.40;1.30;;;;;;;;;;5047094;28;20213;-65
2021/12/15 09:18:25;;;;;;;1.20;1.03;;;;;;;;;;5064857;28;20666;-66
2021/12/15 09:21:15;;;;;;;1.30;1.20;;;;;;;;;;5048412;28;20298;-65
2021/12/15 09:24:04;;;;;;;1.30;1.20;;;;;;;;;;5038467;28;20426;-64
2021/12/15 09:26:52;;;;;;;1.23;1.13;;;;;;;;;;5044900;28;20206;-65
2021/12/15 09:29:39;;;;;;;1.77;1.67;;;;;;;;;;5043903;28;20201;-65
2021/12/15 09:32:26;;;;;;;1.40;1.30;;;;;;;;;;5036051;28;20587;-65
2021/12/15 09:35:16;;;;;;;1.20;1.20;;;;;;;;;;5034666;28;20221;-65
2021/12/15 09:38:03;;;;;;;1.60;1.50;;;;;;;;;;5043918;28;20208;-65
2021/12/15 09:40:53;;;;;;;2.00;1.40;;;;;;;;;;5043047;28;20220;-65
2021/12/15 09:43:43;;;;;;;1.83;1.53;;;;;;;;;;5046089;28;20223;-65
2021/12/15 09:46:40;;;;;;;1.07;1.07;;;;;;;;;;5045874;28;21338;-65
2021/12/15 10:02:08;;;;;;;2.20;1.47;;;;;;;;;;5053296;28;20197;-65
2021/12/15 10:05:06;;;;;;;3.03;1.50;;;;;;;;;;5051360;28;20236;-65
2021/12/15 10:11:18;;;;;;;1.23;0.90;;;;;;;;;;5043252;28;20215;-65
2021/12/15 10:17:30;;;;;;;2.47;1.30;;;;;;;;;;5051256;28;20289;-64
2021/12/15 10:20:21;;;;;;;1.33;1.17;;;;;;;;;;5049457;28;20219;-65
2021/12/15 10:23:12;;;;;;;2.40;1.50;;;;;;;;;;5041267;28;20203;-65
2021/12/15 10:25:59;;;;;;;1.50;1.40;;;;;;;;;;5043333;28;20205;-65
2021/12/15 10:28:49;;;;;;;1.63;1.43;;;;;;;;;;5047583;28;20287;-65
2021/12/15 10:31:39;;;;;;;1.43;1.30;;;;;;;;;;5038732;28;20275;-64
2021/12/15 10:34:27;;;;;;;1.67;1.40;;;;;;;;;;5054150;28;20216;-64
2021/12/15 10:37:14;;;;;;;2.17;1.70;;;;;;;;;;5057099;28;20237;-65
2021/12/15 10:40:17;;;;;;;1.77;1.67;;;;;;;;;;5052493;28;20294;-65
2021/12/15 10:43:05;;;;;;;1.80;1.70;;;;;;;;;;5038695;28;20535;-65
2021/12/15 10:45:57;;;;;;;1.90;1.60;;;;;;;;;;5047035;28;20265;-65
2021/12/15 10:48:49;;;;;;;1.97;1.60;;;;;;;;;;5049341;28;20258;-65
2021/12/15 10:51:40;;;;;;;1.57;1.43;;;;;;;;;;5049031;28;20209;-65
2021/12/15 10:54:31;;;;;;;1.47;1.30;;;;;;;;;;5049349;28;20216;-65
2021/12/15 10:57:20;;;;;;;1.93;1.83;;;;;;;;;;5036935;28;20216;-65
2021/12/15 11:00:11;;;;;;;2.40;1.53;;;;;;;;;;5039517;28;20336;-65
2021/12/15 11:03:04;;;;;;;1.97;1.80;;;;;;;;;;5048933;28;20296;-65
2021/12/15 11:05:54;;;;;;;1.63;1.47;;;;;;;;;;5067863;28;20204;-65
2021/12/15 11:08:41;;;;;;;2.00;1.80;;;;;;;;;;5048321;28;20211;-65
2021/12/15 11:11:29;;;;;;;1.67;1.47;;;;;;;;;;5047850;28;20217;-65
2021/12/15 11:14:29;;;;;;;2.13;1.83;;;;;;;;;;5045073;28;20729;-65
2021/12/15 11:17:19;;;;;;;1.60;1.50;;;;;;;;;;5048040;28;20205;-65
2021/12/15 11:20:11;;;;;;;2.07;1.40;;;;;;;;;;5040489;28;20260;-64
2021/12/15 11:23:01;;;;;;;1.40;1.10;;;;;;;;;;5044558;28;20674;-64
2021/12/15 11:25:51;;;;;;;2.30;2.00;;;;;;;;;;5047567;28;20277;-66
2021/12/15 11:28:41;;;;;;;1.90;1.50;;;;;;;;;;5048210;28;20209;-65
2021/12/15 11:31:31;;;;;;;1.30;1.20;;;;;;;;;;5052042;28;20234;-65
2021/12/15 11:34:19;;;;;;;1.40;1.23;;;;;;;;;;5052622;28;20651;-65
2021/12/15 11:37:06;;;;;;;2.10;1.70;;;;;;;;;;5048739;28;20206;-64
2021/12/15 11:40:04;;;;;;;1.60;1.50;;;;;;;;;;5048080;28;20240;-64
2021/12/15 11:42:51;;;;;;;1.70;1.60;;;;;;;;;;5047590;28;20259;-64
2021/12/15 11:45:43;;;;;;;1.53;1.43;;;;;;;;;;5043168;28;20206;-65
2021/12/15 11:48:33;;;;;;;1.80;1.63;;;;;;;;;;5050268;28;20220;-64
2021/12/15 11:51:30;;;;;;;3.20;1.60;;;;;;;;;;5049219;28;20687;-65
2021/12/15 11:54:20;;;;;;;2.07;1.80;;;;;;;;;;5046810;28;20678;-64
2021/12/15 11:57:19;;;;;;;1.37;1.27;;;;;;;;;;5047659;28;20728;-64
2021/12/15 12:00:13;;;;;;;1.40;1.30;;;;;;;;;;5043399;28;20724;-65
2021/12/15 12:03:00;;;;;;;1.87;1.70;;;;;;;;;;5048478;28;20290;-65
2021/12/15 12:05:47;;;;;;;3.17;1.77;;;;;;;;;;5038255;28;20319;-65
2021/12/15 12:08:34;;;;;;;2.40;1.90;;;;;;;;;;5050700;28;20287;-65
2021/12/15 12:11:21;;;;;;;2.63;1.90;;;;;;;;;;5059252;28;20248;-64
2021/12/15 12:14:18;;;;;;;1.63;1.53;;;;;;;;;;5049880;28;20320;-65
2021/12/15 12:17:12;;;;;;;1.70;1.60;;;;;;;;;;5047382;28;20749;-65
2021/12/15 12:20:01;;;;;;;2.63;1.97;;;;;;;;;;5047221;28;20608;-65
2021/12/15 12:22:50;;;;;;;3.67;1.97;;;;;;;;;;5047456;28;20573;-64
2021/12/15 12:25:46;;;;;;;1.70;1.53;;;;;;;;;;5046854;28;20651;-65
2021/12/15 12:28:35;;;;;;;3.27;1.90;;;;;;;;;;5048361;28;20217;-65
2021/12/15 12:31:24;;;;;;;1.73;1.63;;;;;;;;;;5048122;28;20229;-64
2021/12/15 12:34:11;;;;;;;2.27;1.67;;;;;;;;;;5041796;28;20589;-64
2021/12/15 12:36:59;;;;;;;2.10;1.67;;;;;;;;;;5048643;28;20815;-64
2021/12/15 12:39:53;;;;;;;1.90;1.70;;;;;;;;;;5050437;28;20205;-64
2021/12/15 12:42:41;;;;;;;3.70;2.03;;;;;;;;;;5046859;28;20197;-65
2021/12/15 12:45:35;;;;;;;1.97;1.77;;;;;;;;;;5047872;28;20218;-65
2021/12/15 12:48:39;;;;;;;3.37;1.90;;;;;;;;;;5049509;28;20584;-64
2021/12/15 13:01:06;;;;;;;4.10;2.20;;;;;;;;;;5012235;28;20253;-64
2021/12/15 13:03:57;;;;;;;2.17;1.60;;;;;;;;;;5046636;28;20224;-65
2021/12/15 13:06:45;;;;;;;1.77;1.67;;;;;;;;;;5034286;28;20213;-65
2021/12/15 13:09:45;;;;;;;2.77;1.77;;;;;;;;;;5047087;28;20209;-65
2021/12/15 13:12:37;;;;;;;2.30;1.90;;;;;;;;;;5045964;28;20254;-65
2021/12/15 13:15:34;;;;;;;2.40;1.83;;;;;;;;;;5053841;28;20573;-65
2021/12/15 13:18:21;;;;;;;1.83;1.70;;;;;;;;;;5048983;28;20675;-65
2021/12/15 13:21:12;;;;;;;2.10;1.63;;;;;;;;;;5040935;28;20229;-65
2021/12/15 13:24:00;;;;;;;3.93;2.00;;;;;;;;;;5044280;28;20234;-65
2021/12/15 13:29:54;;;;;;;1.73;1.57;;;;;;;;;;5048110;28;20255;-65
2021/12/15 13:32:46;;;;;;;2.30;1.73;;;;;;;;;;5037158;28;20221;-65
2021/12/15 13:35:40;;;;;;;2.50;1.87;;;;;;;;;;5050173;28;20215;-65
2021/12/15 13:38:35;;;;;;;2.37;2.00;;;;;;;;;;5048597;28;20296;-65
2021/12/15 13:41:38;;;;;;;2.13;1.90;;;;;;;;;;5037807;28;20294;-65
2021/12/15 13:44:30;;;;;;;3.90;1.73;;;;;;;;;;5053122;28;20694;-65
2021/12/15 13:47:19;;;;;;;3.13;1.50;;;;;;;;;;5049303;28;20660;-65
2021/12/15 13:50:18;;;;;;;2.53;1.73;;;;;;;;;;5051294;28;20306;-65
2021/12/15 13:53:05;;;;;;;1.67;1.57;;;;;;;;;;5051938;28;20306;-65
2021/12/15 13:55:53;;;;;;;2.77;1.77;;;;;;;;;;5047530;28;20285;-66
2021/12/15 13:58:40;;;;;;;2.33;1.83;;;;;;;;;;5048308;28;20291;-64
2021/12/15 14:01:27;;;;;;;2.13;1.80;;;;;;;;;;5050691;28;20689;-65
2021/12/15 14:04:42;;;;;;;2.27;2.00;;;;;;;;;;5049166;28;20251;-65
2021/12/15 14:07:41;;;;;;;2.10;1.90;;;;;;;;;;5047132;28;20308;-64
2021/12/15 14:11:08;;;;;;;2.77;1.93;;;;;;;;;;5049517;28;20229;-65
2021/12/15 14:13:58;;;;;;;2.10;1.90;;;;;;;;;;5049727;28;20742;-65
2021/12/15 14:16:48;;;;;;;2.33;1.90;;;;;;;;;;5050139;28;20249;-64
2021/12/15 14:19:36;;;;;;;2.13;1.50;;;;;;;;;;5045034;28;20238;-65
2021/12/15 14:22:25;;;;;;;2.63;1.80;;;;;;;;;;5051330;28;20205;-65
2021/12/15 14:25:12;;;;;;;2.33;2.03;;;;;;;;;;5048151;28;20701;-65
2021/12/15 14:28:06;;;;;;;2.90;1.70;;;;;;;;;;5048565;28;20209;-65
2021/12/15 14:30:58;;;;;;;2.93;1.60;;;;;;;;;;5051302;28;20224;-65
2021/12/15 14:33:48;;;;;;;1.93;1.43;;;;;;;;;;5050173;28;20314;-64
2021/12/15 14:36:39;;;;;;;2.57;1.93;;;;;;;;;;5054967;28;20254;-65
2021/12/15 14:39:31;;;;;;;2.00;1.77;;;;;;;;;;5050257;28;20213;-65
2021/12/15 14:42:21;;;;;;;2.27;1.83;;;;;;;;;;5044848;28;20208;-65
2021/12/15 14:45:11;;;;;;;2.60;2.13;;;;;;;;;;5049804;28;20201;-65
2021/12/15 14:47:59;;;;;;;2.40;1.97;;;;;;;;;;5048423;28;20196;-65
2021/12/15 14:50:47;;;;;;;3.00;1.87;;;;;;;;;;5049470;28;20343;-65
2021/12/15 14:53:41;;;;;;;1.60;1.50;;;;;;;;;;5052572;28;20224;-64
2021/12/15 14:56:55;;;;;;;1.87;1.67;;;;;;;;;;5047775;28;20216;-65
2021/12/15 14:59:45;;;;;;;2.63;1.93;;;;;;;;;;5047441;28;20731;-65
2021/12/15 15:02:34;;;;;;;1.90;1.73;;;;;;;;;;5048120;28;20232;-65
2021/12/15 15:05:25;;;;;;;1.57;1.47;;;;;;;;;;5049611;28;20322;-65
2021/12/15 15:08:14;;;;;;;2.00;1.80;;;;;;;;;;5038182;28;20205;-65
2021/12/15 15:11:03;;;;;;;2.83;2.03;;;;;;;;;;5052084;28;20293;-65
2021/12/15 15:13:52;;;;;;;3.40;1.70;;;;;;;;;;5050648;28;20672;-65
2021/12/15 15:16:39;;;;;;;2.60;1.57;;;;;;;;;;5050061;28;20212;-65
2021/12/15 15:19:31;;;;;;;2.23;1.60;;;;;;;;;;5045935;28;20260;-65
2021/12/15 15:22:19;;;;;;;2.23;1.80;;;;;;;;;;5049602;28;20289;-66
2021/12/15 15:25:08;;;;;;;1.97;1.77;;;;;;;;;;5048523;28;20532;-65
2021/12/15 15:27:58;;;;;;;3.00;1.73;;;;;;;;;;5046714;28;20572;-66
2021/12/15 15:30:49;;;;;;;2.83;1.90;;;;;;;;;;5047053;28;20248;-65
2021/12/15 15:33:38;;;;;;;1.90;1.70;;;;;;;;;;5037969;28;20251;-64
2021/12/15 15:36:28;;;;;;;2.17;1.97;;;;;;;;;;5038026;28;20882;-65
2021/12/15 15:39:15;;;;;;;2.80;2.07;;;;;;;;;;5049734;28;20736;-64
2021/12/15 15:42:02;;;;;;;2.03;1.83;;;;;;;;;;5036268;28;20335;-65
2021/12/15 15:44:49;;;;;;;2.40;2.20;;;;;;;;;;5050813;28;20215;-65
2021/12/15 15:47:38;;;;;;;2.50;2.30;;;;;;;;;;5049092;28;20234;-66
2021/12/15 15:50:26;;;;;;;2.40;2.20;;;;;;;;;;5036434;28;20270;-65
2021/12/15 15:53:13;;;;;;;2.30;2.10;;;;;;;;;;5050566;28;20306;-65
2021/12/15 15:56:07;;;;;;;2.33;2.13;;;;;;;;;;5048902;28;20252;-65
2021/12/15 15:58:57;;;;;;;2.80;2.07;;;;;;;;;;5035067;28;20224;-65
2021/12/15 16:01:46;;;;;;;3.70;2.20;;;;;;;;;;5048113;28;20205;-65
2021/12/15 16:04:37;;;;;;;3.33;2.10;;;;;;;;;;5044197;28;20256;-65
2021/12/15 16:07:24;;;;;;;2.80;2.10;;;;;;;;;;5034713;28;20241;-65
2021/12/15 16:10:11;;;;;;;2.77;2.20;;;;;;;;;;5050919;28;20236;-65
2021/12/15 16:13:01;;;;;;;3.00;2.30;;;;;;;;;;5046075;28;20205;-65
2021/12/15 16:15:51;;;;;;;2.63;1.73;;;;;;;;;;5048462;28;20675;-65
2021/12/15 16:18:43;;;;;;;2.10;1.90;;;;;;;;;;5048024;28;20295;-65
2021/12/15 16:24:38;;;;;;;5.30;1.83;;;;;;;;;;5050260;28;20704;-64
2021/12/15 16:27:36;;;;;;;2.63;2.07;;;;;;;;;;5045864;28;20243;-64
2021/12/15 16:30:26;;;;;;;2.40;2.10;;;;;;;;;;5046131;28;20236;-65
2021/12/15 16:33:15;;;;;;;2.17;2.07;;;;;;;;;;5045689;28;20204;-65
2021/12/15 16:36:04;;;;;;;2.60;1.93;;;;;;;;;;5050003;28;20208;-65
2021/12/15 16:38:55;;;;;;;2.40;2.13;;;;;;;;;;5047822;28;20211;-66
2021/12/15 16:41:50;;;;;;;2.47;1.90;;;;;;;;;;5031959;28;20205;-65
2021/12/15 16:44:46;;;;;;;2.00;1.80;;;;;;;;;;5040590;28;20276;-66
2021/12/15 16:47:35;;;;;;;2.87;2.17;;;;;;;;;;5043728;28;20236;-65
2021/12/15 16:50:26;;;;;;;2.47;1.80;;;;;;;;;;5049864;28;20201;-66
2021/12/15 16:53:12;;;;;;;2.57;1.80;;;;;;;;;;5037367;28;20275;-66
2021/12/15 16:56:01;;;;;;;2.40;2.13;;;;;;;;;;5040425;28;20205;-65
2021/12/15 16:59:10;;;;;;;2.23;1.90;;;;;;;;;;5051501;28;20213;-66
2021/12/15 17:02:00;;;;;;;2.20;1.90;;;;;;;;;;5040092;28;20288;-65
2021/12/15 17:04:50;;;;;;;1.97;1.83;;;;;;;;;;5043850;28;20363;-65
2021/12/15 17:07:40;;;;;;;1.93;1.73;;;;;;;;;;5033636;28;20286;-65
2021/12/15 17:10:34;;;;;;;5.13;2.00;;;;;;;;;;5046959;28;20232;-65
2021/12/15 17:13:25;;;;;;;2.03;1.60;;;;;;;;;;5045264;28;20283;-66
2021/12/15 17:16:14;;;;;;;3.40;1.80;;;;;;;;;;5042162;28;20250;-65
2021/12/15 17:19:14;;;;;;;2.27;1.83;;;;;;;;;;5048557;28;20204;-65
2021/12/15 17:22:12;;;;;;;1.43;1.33;;;;;;;;;;5045702;28;20248;-65
2021/12/15 17:25:10;;;;;;;2.13;1.60;;;;;;;;;;5033118;28;20267;-63
2021/12/15 17:28:05;;;;;;;1.87;1.77;;;;;;;;;;5045946;28;20299;-65
2021/12/15 17:31:02;;;;;;;2.73;1.67;;;;;;;;;;5047414;28;20227;-65
2021/12/15 17:33:55;;;;;;;2.20;1.80;;;;;;;;;;5048672;28;20363;-64
2021/12/15 17:36:44;;;;;;;2.50;1.77;;;;;;;;;;5047456;28;20295;-65
2021/12/15 17:39:33;;;;;;;2.47;1.93;;;;;;;;;;5043782;28;20284;-65
2021/12/15 17:42:23;;;;;;;2.03;1.87;;;;;;;;;;5045753;28;20614;-64
2021/12/15 17:45:14;;;;;;;2.20;1.40;;;;;;;;;;5045843;28;20738;-65
2021/12/15 17:48:02;;;;;;;1.77;1.57;;;;;;;;;;5046355;28;20258;-66
2021/12/15 17:50:50;;;;;;;1.53;1.40;;;;;;;;;;5033498;28;20314;-64
2021/12/15 17:53:39;;;;;;;1.40;1.30;;;;;;;;;;5047647;28;20205;-65
2021/12/15 17:56:26;;;;;;;3.40;1.50;;;;;;;;;;5046295;28;20594;-65
2021/12/15 17:59:13;;;;;;;1.50;1.40;;;;;;;;;;5033046;28;20208;-65
2021/12/15 18:02:00;;;;;;;2.63;1.67;;;;;;;;;;5048124;28;20362;-65
2021/12/15 18:04:50;;;;;;;1.90;1.57;;;;;;;;;;5049069;28;20696;-66
2021/12/15 18:07:37;;;;;;;3.20;1.60;;;;;;;;;;5039512;28;20581;-64
2021/12/15 18:10:36;;;;;;;1.90;1.40;;;;;;;;;;5040870;28;20221;-65